Flight Track Log - Related Links

Times and Time Zones

All times are in EST time to prevent confusion due to time zone crossing. See the WIG7306 flight status page for this flight to view local times or setup timezone preferences in your user account.

Time Position Orientation Groundspeed Altitude Reporting Facility
EST Latitude Longitude Course Direction KTS MPH feet Rate Location/Type
Tue 10:15:46 PM 42.7403 -73.8053 183° South 98 113 900  Level Boston Center
Tue 10:16:29 PM 42.7183 -73.8067 183° South 108 124 1,900 1,500 Climbing Boston Center
Tue 10:17:10 PM 42.7036 -73.8217 217° Southwest 102 117 3,000 1,698 Climbing Boston Center
Tue 10:17:22 PM 42.6953 -73.8278 208° Southwest 106 122 3,400 1,475 Climbing Boston Center
Tue 10:18:11 PM 42.6783 -73.8417 211° Southwest 103 119 4,500 1,475 Climbing Boston Center
Tue 10:18:23 PM 42.6703 -73.8456 200° South 104 120 4,900 1,500 Climbing Boston Center
Tue 10:19:11 PM 42.6544 -73.8600 214° Southwest 102 117 6,000 1,500 Climbing Boston Center
Tue 10:19:23 PM 42.6478 -73.8642 205° Southwest 98 113 6,400 1,475 Climbing Boston Center
Tue 10:20:12 PM 42.6306 -73.8775 210° Southwest 101 116 7,500 1,377 Climbing Boston Center
Tue 10:20:24 PM 42.6228 -73.8819 203° Southwest 94 108 7,800 517 Climbing Boston Center
Tue 10:21:10 PM 42.6058 -73.8972 214° Southwest 102 117 8,000 197 Climbing Boston Center
Tue 10:21:25 PM 42.5950 -73.9044 206° Southwest 118 136 8,000  Level Boston Center
Tue 10:22:10 PM 42.5725 -73.9239 212° Southwest 135 155 8,000  Level Boston Center
Tue 10:22:25 PM 42.5622 -73.9311 207° Southwest 145 167 8,000 98 Level Boston Center
Tue 10:23:11 PM 42.5400 -73.9492 211° Southwest 135 155 8,100 98 Climbing Boston Center
Tue 10:23:26 PM 42.5300 -73.9550 203° Southwest 136 157 8,100 -95 Level Boston Center
Tue 10:24:14 PM 42.5072 -73.9739 211° Southwest 135 155 8,000  Descending Boston Center
Tue 10:24:26 PM 42.4969 -73.9817 209° Southwest 135 155 8,100  Climbing Boston Center
Tue 10:25:13 PM 42.4739 -73.9994 210° Southwest 136 157 8,000 -97 Descending Boston Center
Tue 10:25:28 PM 42.4647 -74.0056 206° Southwest 137 158 8,000 98 Level Boston Center
Tue 10:26:14 PM 42.4408 -74.0242 210° Southwest 136 157 8,100 98 Climbing Boston Center
Tue 10:26:29 PM 42.4317 -74.0319 212° Southwest 137 158 8,100 -100 Level Boston Center
Tue 10:27:14 PM 42.4047 -74.0531 210° Southwest 136 157 8,000  Descending Boston Center
Tue 10:27:23 PM 42.3994 -74.0558 201° Southwest 139 160 8,100 98 Climbing Boston Center
Tue 10:28:15 PM 42.3711 -74.0794 212° Southwest 137 158 8,100  Level Boston Center
Tue 10:28:24 PM 42.3664 -74.0822 203° Southwest 139 160 8,100 -100 Level Boston Center
Tue 10:29:15 PM 42.3378 -74.1044 210° Southwest 138 159 8,000  Descending Boston Center
Tue 10:30:17 PM 42.3061 -74.1272 208° Southwest 133 153 8,100 50 Climbing Boston Center
Tue 10:31:16 PM 42.2725 -74.1547 211° Southwest 136 157 8,100  Level Boston Center
Tue 10:32:19 PM 42.2394 -74.1817 211° Southwest 138 159 8,100  Level Boston Center
Tue 10:33:19 PM 42.2047 -74.2058 207° Southwest 138 159 8,100 -50 Level Boston Center
Tue 10:34:18 PM 42.1678 -74.2331 209° Southwest 141 162 8,000  Descending Boston Center
Tue 10:35:19 PM 42.1336 -74.2575 208° Southwest 140 161 8,100 49 Climbing Boston Center
Tue 10:36:21 PM 42.0997 -74.2822 208° Southwest 140 161 8,100  Level Boston Center
Tue 10:37:21 PM 42.0653 -74.3078 209° Southwest 140 161 8,100  Level Boston Center
Tue 10:38:22 PM 42.0328 -74.3319 209° Southwest 137 158 8,100  Level Boston Center
Tue 10:39:20 PM 41.9978 -74.3575 208° Southwest 139 160 8,100  Level Boston Center
Tue 10:40:23 PM 41.9631 -74.3836 209° Southwest 142 163 8,100  Level Boston Center
Tue 10:41:24 PM 41.9289 -74.4081 208° Southwest 142 163 8,100  Level Boston Center
Tue 10:42:24 PM 41.8911 -74.4344 207° Southwest 142 163 8,100  Level Boston Center
Tue 10:43:25 PM 41.8575 -74.4592 209° Southwest 141 162 8,100  Level Boston Center
Tue 10:44:26 PM 41.8233 -74.4833 208° Southwest 141 162 8,100  Level Boston Center
Tue 10:45:27 PM 41.7897 -74.5078 208° Southwest 141 162 8,100  Level Boston Center
Tue 10:46:27 PM 41.7547 -74.5314 207° Southwest 141 162 8,100 -50 Level Boston Center
Tue 10:47:28 PM 41.7147 -74.5361 185° South 142 163 8,000  Descending Boston Center
Tue 10:48:28 PM 41.6714 -74.5439 188° South 145 167 8,100 -50 Climbing Boston Center
Tue 10:49:29 PM 41.6306 -74.5519 188° South 145 167 7,900 -550 Descending Boston Center
Tue 10:50:28 PM 41.5864 -74.5625 190° South 159 183 7,000 -893 Descending Boston Center
Tue 10:51:30 PM 41.5417 -74.5708 188° South 161 185 6,100 -488 Descending Boston Center
Tue 10:52:31 PM 41.4989 -74.5769 186° South 157 181 6,000 -50 Descending Boston Center
Tue 10:53:31 PM 41.4586 -74.5847 188° South 151 174 6,000  Level Boston Center
Tue 10:54:32 PM 41.4178 -74.5931 189° South 150 173 6,000  Level Boston Center
Tue 10:55:33 PM 41.3747 -74.6069 194° South 150 173 6,000  Level Boston Center
Tue 10:56:33 PM 41.3361 -74.6222 197° South 149 171 6,000 -298 Level Boston Center
Tue 10:57:34 PM 41.2978 -74.6011 158° South 164 189 5,400 -645 Descending Boston Center
Tue 10:58:34 PM 41.2606 -74.5592 140° Southeast 172 198 4,700 -843 Descending Boston Center
Tue 10:59:35 PM 41.2244 -74.5156 138° Southeast 173 199 3,700 -797 Descending Boston Center
Tue 11:00:42 PM 41.1833 -74.4667 138° Southeast 163 188 3,000 -331 Descending New York TRACON
Tue 11:01:42 PM 41.1500 -74.4333 143° Southeast 150 173 3,000  Level New York TRACON
Tue 11:02:42 PM 41.1167 -74.4000 143° Southeast 161 185 3,000  Level New York TRACON
Tue 11:03:48 PM 41.0833 -74.3500 131° Southeast 151 174 3,000  Level New York TRACON
Tue 11:04:48 PM 41.0500 -74.3167 143° Southeast 201 231 3,000  Level New York TRACON
Tue 11:05:48 PM 41.0333 -74.2833 124° Southeast 148 170 3,000  Level New York TRACON
Tue 11:06:48 PM 41.0000 -74.2333 131° Southeast 153 176 3,000  Level New York TRACON
Tue 11:07:48 PM 40.9667 -74.2000 143° Southeast 153 176 3,000  Level New York TRACON
Tue 11:08:48 PM 40.9333 -74.1667 143° Southeast 151 174 3,000  Level New York TRACON
Tue 11:09:48 PM 40.9000 -74.1333 143° Southeast 155 178 3,000  Level New York TRACON
Tue 11:10:48 PM 40.8667 -74.1000 143° Southeast 151 174 3,000 -250 Level New York TRACON
Tue 11:11:48 PM 40.8167 -74.1000 180° South 161 185 2,500 -524 Descending New York TRACON
Tue 11:12:54 PM 40.7667 -74.1167 194° South 158 182 1,900 -762 Descending New York TRACON
Tue 11:13:54 PM 40.7333 -74.1333 201° Southwest 164 189 900 -1,000 Descending New York TRACON
Tue 11:15:00 PM 40.6900 -74.1622 207° Southwest  Level FlightAware Approximate
Tue 11:22:00 PM 40.6833 -74.1667 185° South  Level FlightAware Approximate
Tue 11:23:00 PM 40.6925 -74.1687 185° South  Level Estimated

Login

Don't have an account? Register now (free) for customized features, flight alerts, and more!